n757tw
Topic Author
Posts: 114
Joined: Mon May 01, 2000 11:52 am

AA592 Rejected Takeoff - PHX 9May2013

Fri May 10, 2013 3:14 am

AA592 rejected takeoff from 25R in PHX causing a departure stop of 15 minutes. Emergency crews still surrounding the aircraft 20 minutes later on taxiway echo near west cargo.

As liveatc doesn't have tower audio for PHX, I don't have any additional details, does anyone else know what the issue was?

The flight crew for my DFW bound AWE flight announced the takeoff delay was caused by an American Airlines rejected takeoff, and the requirement to inspect the runway.



KPHX 191351Z 05006KT 10SM CLR 17/M14 A3016 RMK AO2 SLP204 T01671144 $

2013/05/09 21:06
KPHX 092059Z 0921/1018 27008KT P6SM FEW090 SCT250
FM100400 28005KT P6SM SCT250
FM101200 10006KT P6SM FEW250
 
MesaFlyGuy
Posts: 3812
Joined: Fri Dec 21, 2012 8:36 pm

RE: AA592 Rejected Takeoff - PHX 9May2013

Fri May 10, 2013 4:23 am

Well whatever it was it must require additional inspection, as the flight has been cancelled.
The views I express are my own and do not reflect the views and opinions of my company.

Who is online

Users browsing this forum: No registered users and 7 guests